createdAt,value
2024-05-09T00:00:45.823Z,8.23
2024-05-09T00:03:13.420Z,8.21
2024-05-09T00:05:41.556Z,8.16
2024-05-09T00:08:10.282Z,8.15
2024-05-09T00:10:39.473Z,8.17
2024-05-09T00:13:08.527Z,8.14
2024-05-09T00:15:36.662Z,8.16
2024-05-09T00:18:05.855Z,8.13
2024-05-09T00:20:38.677Z,8.04
2024-05-09T00:23:12.830Z,7.98
2024-05-09T00:25:44.122Z,7.93
2024-05-09T00:28:12.683Z,7.85
2024-05-09T00:30:40.572Z,7.79
2024-05-09T00:33:10.090Z,7.77
2024-05-09T00:35:38.629Z,7.67
2024-05-09T00:38:06.422Z,7.63
2024-05-09T00:40:41.851Z,7.63
2024-05-09T00:43:14.731Z,7.60
2024-05-09T00:45:43.620Z,7.61
2024-05-09T00:48:15.223Z,7.65
2024-05-09T00:50:45.811Z,7.59
2024-05-09T00:53:15.920Z,7.52
2024-05-09T00:55:44.245Z,7.39
2024-05-09T00:58:15.866Z,7.36
2024-05-09T01:00:43.663Z,7.31
2024-05-09T01:03:13.067Z,7.34
2024-05-09T01:05:42.669Z,7.38
2024-05-09T01:08:11.558Z,7.36
2024-05-09T01:10:40.795Z,7.32
2024-05-09T01:13:10.316Z,7.26
2024-05-09T01:15:37.512Z,7.22
2024-05-09T01:18:10.415Z,7.20
2024-05-09T01:20:42.354Z,7.11
2024-05-09T01:23:12.903Z,7.03
2024-05-09T01:25:41.296Z,7.00
2024-05-09T01:28:08.616Z,7.05
2024-05-09T01:30:37.526Z,6.99
2024-05-09T01:33:07.960Z,6.91
2024-05-09T01:35:37.378Z,6.87
2024-05-09T01:38:05.405Z,6.91
2024-05-09T01:40:38.116Z,6.95
2024-05-09T01:43:11.137Z,6.90
2024-05-09T01:45:40.246Z,6.89
2024-05-09T01:48:08.736Z,6.90
2024-05-09T01:50:40.108Z,6.89
2024-05-09T01:53:15.170Z,6.81
2024-05-09T01:55:43.080Z,6.72
2024-05-09T01:58:10.794Z,6.63
2024-05-09T02:00:42.459Z,6.54
2024-05-09T02:03:16.477Z,6.52
2024-05-09T02:05:47.123Z,6.48
2024-05-09T02:08:19.654Z,6.48
2024-05-09T02:10:48.500Z,6.48
2024-05-09T02:13:16.802Z,6.55
2024-05-09T02:15:44.491Z,6.65
2024-05-09T02:18:12.201Z,6.70
2024-05-09T02:20:42.184Z,6.71
2024-05-09T02:23:10.285Z,6.62
2024-05-09T02:25:37.656Z,6.60
2024-05-09T02:28:05.236Z,6.49
2024-05-09T02:33:04.031Z,6.38
2024-05-09T02:35:31.493Z,6.40
2024-05-09T02:37:58.824Z,6.33
2024-05-09T02:40:35.046Z,6.28
2024-05-09T02:43:05.151Z,6.24
2024-05-09T02:45:32.867Z,6.24
2024-05-09T02:48:01.380Z,6.30
2024-05-09T02:50:36.595Z,6.27
2024-05-09T02:53:10.050Z,6.36
2024-05-09T02:55:38.405Z,6.32
2024-05-09T02:58:07.481Z,6.31
2024-05-09T03:00:39.336Z,6.26
2024-05-09T03:03:11.358Z,6.25
2024-05-09T03:05:41.053Z,6.18
2024-05-09T03:08:08.828Z,6.15
2024-05-09T03:10:38.330Z,6.13
2024-05-09T03:13:12.783Z,6.07
2024-05-09T03:15:41.355Z,6.03
2024-05-09T03:18:09.051Z,6.04
2024-05-09T03:20:37.296Z,6.08
2024-05-09T03:23:06.607Z,6.10
2024-05-09T03:25:34.484Z,6.18
2024-05-09T03:28:01.923Z,6.21
2024-05-09T03:30:36.272Z,6.19
2024-05-09T03:33:13.544Z,6.17
2024-05-09T03:35:42.295Z,6.11
2024-05-09T03:38:09.707Z,6.06
2024-05-09T03:40:44.389Z,6.02
2024-05-09T03:43:11.700Z,6.05
2024-05-09T03:45:38.971Z,6.07
2024-05-09T03:48:06.889Z,6.09
2024-05-09T03:50:36.101Z,6.22
2024-05-09T03:53:04.516Z,6.36
2024-05-09T03:55:32.361Z,6.47
2024-05-09T03:57:59.902Z,6.55
2024-05-09T04:00:35.434Z,6.60
2024-05-09T04:03:08.910Z,6.63
2024-05-09T04:05:41.044Z,6.74
2024-05-09T04:08:10.087Z,6.89
2024-05-09T04:10:37.823Z,6.90
2024-05-09T04:13:05.601Z,6.99
2024-05-09T04:15:33.012Z,7.08
2024-05-09T04:18:01.277Z,7.16
2024-05-09T04:20:37.128Z,7.26
2024-05-09T04:23:08.917Z,7.36
2024-05-09T04:25:37.208Z,7.48
2024-05-09T04:28:05.304Z,7.61
2024-05-09T04:30:38.161Z,7.75
2024-05-09T04:33:10.883Z,7.81
2024-05-09T04:35:40.021Z,7.88
2024-05-09T04:38:08.250Z,7.90
2024-05-09T04:40:37.247Z,7.96
2024-05-09T04:43:06.613Z,8.05
2024-05-09T04:45:34.301Z,8.15
2024-05-09T04:48:02.271Z,8.27
2024-05-09T04:50:36.440Z,8.35
2024-05-09T04:53:10.581Z,8.40
2024-05-09T04:55:40.027Z,8.45
2024-05-09T04:58:09.444Z,8.47
2024-05-09T05:00:39.078Z,8.51
2024-05-09T05:03:14.475Z,8.50
2024-05-09T05:05:44.856Z,8.50
2024-05-09T05:08:18.613Z,8.61
2024-05-09T05:10:48.113Z,8.60
2024-05-09T05:13:18.177Z,8.69
2024-05-09T05:15:50.292Z,8.69
2024-05-09T05:18:18.536Z,8.73
2024-05-09T05:20:46.336Z,8.83
2024-05-09T05:23:15.987Z,8.90
2024-05-09T05:25:43.851Z,8.95
2024-05-09T05:28:11.435Z,8.97
2024-05-09T05:30:39.491Z,9.02
2024-05-09T05:33:07.612Z,9.04
2024-05-09T05:35:35.189Z,9.01
2024-05-09T05:38:03.432Z,8.95
2024-05-09T05:40:37.231Z,9.01
2024-05-09T05:43:15.861Z,9.15
2024-05-09T05:45:43.879Z,9.17
2024-05-09T05:48:11.550Z,9.21
2024-05-09T05:50:39.219Z,9.28
2024-05-09T05:53:08.419Z,9.33
2024-05-09T05:55:40.540Z,9.48
2024-05-09T05:58:15.058Z,9.68
2024-05-09T06:00:43.060Z,9.80
2024-05-09T06:03:12.759Z,9.95
2024-05-09T06:05:41.168Z,10.03
2024-05-09T06:08:09.229Z,10.15
2024-05-09T06:10:39.587Z,10.30
2024-05-09T06:13:12.582Z,10.58
2024-05-09T06:15:41.029Z,10.80
2024-05-09T06:18:10.735Z,10.94
2024-05-09T06:20:43.152Z,11.09
2024-05-09T06:23:12.182Z,11.36
2024-05-09T06:25:39.936Z,11.59
2024-05-09T06:28:07.521Z,11.74
2024-05-09T06:30:40.645Z,11.99
2024-05-09T06:33:13.361Z,12.19
2024-05-09T06:35:42.780Z,12.38
2024-05-09T06:38:10.364Z,12.51
2024-05-09T06:40:43.040Z,12.73
2024-05-09T06:43:13.418Z,12.94
2024-05-09T06:45:41.105Z,13.13
2024-05-09T06:48:12.131Z,13.23
2024-05-09T06:50:41.287Z,13.37
2024-05-09T06:53:09.482Z,13.51
2024-05-09T06:55:37.972Z,13.66
2024-05-09T06:58:11.779Z,13.79
2024-05-09T07:00:41.199Z,13.85
2024-05-09T07:03:15.365Z,13.91
2024-05-09T07:05:46.010Z,14.01
2024-05-09T07:08:14.102Z,14.17
2024-05-09T07:10:41.707Z,14.34
2024-05-09T07:13:13.541Z,14.42
2024-05-09T07:15:42.015Z,14.58
2024-05-09T07:18:13.739Z,14.74
2024-05-09T07:20:42.367Z,14.95
2024-05-09T07:23:11.028Z,15.14
2024-05-09T07:25:39.970Z,15.30
2024-05-09T07:28:14.613Z,15.51
2024-05-09T07:30:42.824Z,15.70
2024-05-09T07:33:12.460Z,15.89
2024-05-09T07:35:39.977Z,16.03
2024-05-09T07:38:07.780Z,16.18
2024-05-09T07:40:37.022Z,16.27
2024-05-09T07:43:05.268Z,16.30
2024-05-09T07:52:23.034Z,16.55
2024-05-09T07:53:39.469Z,16.66
2024-05-09T07:56:11.408Z,16.68
2024-05-09T07:58:39.503Z,16.75
2024-05-09T08:01:07.097Z,16.80
2024-05-09T08:03:34.699Z,16.83
2024-05-09T08:06:02.282Z,16.86
2024-05-09T08:08:29.521Z,17.00
2024-05-09T08:10:57.216Z,17.14
2024-05-09T08:13:24.477Z,17.38
2024-05-09T08:15:52.866Z,17.55
2024-05-09T08:18:20.580Z,17.68
2024-05-09T08:20:49.991Z,17.57
2024-05-09T08:23:18.106Z,17.44
2024-05-09T08:25:45.404Z,17.52
2024-05-09T08:28:13.159Z,17.51
2024-05-09T08:30:40.650Z,17.31
2024-05-09T08:33:08.316Z,17.17
2024-05-09T08:35:36.295Z,17.20
2024-05-09T08:38:04.821Z,17.23
2024-05-09T08:40:35.916Z,17.33
2024-05-09T08:43:10.508Z,17.20
2024-05-09T08:45:43.373Z,17.11
2024-05-09T08:48:13.317Z,17.17
2024-05-09T08:50:41.747Z,17.40
2024-05-09T08:53:09.541Z,17.53
2024-05-09T08:55:40.719Z,17.67
2024-05-09T08:58:16.537Z,17.73
2024-05-09T09:00:46.027Z,17.78
2024-05-09T09:03:19.522Z,17.78
2024-05-09T09:05:58.503Z,17.56
2024-05-09T09:08:26.614Z,17.52
2024-05-09T09:10:57.930Z,17.39
2024-05-09T09:13:25.837Z,17.23
2024-05-09T09:15:57.899Z,17.05
2024-05-09T09:18:30.687Z,16.85
2024-05-09T09:20:58.291Z,16.75
2024-05-09T09:23:30.471Z,16.62
2024-05-09T09:26:01.054Z,16.36
2024-05-09T09:28:28.506Z,16.17
2024-05-09T09:31:02.348Z,16.09
2024-05-09T09:33:32.948Z,16.03
2024-05-09T09:36:05.015Z,16.03
2024-05-09T09:38:37.165Z,16.12
2024-05-09T09:41:07.995Z,16.20
2024-05-09T09:43:36.692Z,16.12
2024-05-09T09:46:08.682Z,16.14
2024-05-09T09:48:39.619Z,16.22
2024-05-09T09:51:08.810Z,16.48
2024-05-09T09:53:38.672Z,16.79
2024-05-09T09:56:08.673Z,17.17
2024-05-09T09:58:38.866Z,17.62
2024-05-09T10:01:06.219Z,18.02
2024-05-09T10:03:34.404Z,18.40
2024-05-09T10:06:02.455Z,18.73
2024-05-09T10:08:30.455Z,18.92
2024-05-09T10:10:57.914Z,18.96
2024-05-09T10:13:34.062Z,19.20
2024-05-09T10:16:09.057Z,19.29
2024-05-09T10:18:37.935Z,19.45
2024-05-09T10:21:16.517Z,19.58
2024-05-09T10:24:07.420Z,19.31
2024-05-09T10:26:39.247Z,19.07
2024-05-09T10:29:17.757Z,18.86
2024-05-09T10:31:46.911Z,18.71
2024-05-09T10:34:22.242Z,18.68
2024-05-09T10:36:54.197Z,18.56
2024-05-09T10:39:22.121Z,18.41
2024-05-09T10:41:49.902Z,18.17
2024-05-09T10:44:17.539Z,18.22
2024-05-09T10:46:46.574Z,18.49
2024-05-09T10:49:17.311Z,18.59
2024-05-09T10:51:45.553Z,18.63
2024-05-09T10:54:12.983Z,18.80
2024-05-09T10:56:41.265Z,18.79
2024-05-09T10:59:08.520Z,18.97
2024-05-09T11:01:36.650Z,19.20
2024-05-09T11:04:04.392Z,19.46
2024-05-09T11:06:31.955Z,19.67
2024-05-09T11:08:59.484Z,19.76
2024-05-09T11:11:27.351Z,19.81
2024-05-09T11:13:54.716Z,19.63
2024-05-09T11:16:22.407Z,19.49
2024-05-09T11:18:57.903Z,19.40
2024-05-09T11:21:25.641Z,19.61
2024-05-09T11:23:53.369Z,19.76
2024-05-09T11:26:22.501Z,19.87
2024-05-09T11:28:51.046Z,19.91
2024-05-09T11:31:19.096Z,19.95
2024-05-09T11:33:47.113Z,20.05
2024-05-09T11:36:15.185Z,20.08
2024-05-09T11:38:42.800Z,20.14
2024-05-09T11:41:17.518Z,20.23
2024-05-09T11:43:44.755Z,20.24
2024-05-09T11:46:12.261Z,20.20
2024-05-09T11:48:40.183Z,20.28
2024-05-09T11:51:07.678Z,20.39
2024-05-09T11:53:34.971Z,20.34
2024-05-09T11:56:02.445Z,20.37
2024-05-09T11:58:34.825Z,20.36
2024-05-09T12:01:02.414Z,20.41
2024-05-09T12:03:30.265Z,20.48
2024-05-09T12:05:58.361Z,20.39
2024-05-09T12:08:25.869Z,20.34
2024-05-09T12:10:53.501Z,20.34
2024-05-09T12:13:21.358Z,20.41
2024-05-09T12:15:48.847Z,20.47
2024-05-09T12:18:16.335Z,20.42
2024-05-09T12:20:43.655Z,20.37
2024-05-09T12:23:11.050Z,20.37
2024-05-09T12:25:39.895Z,20.38
2024-05-09T12:28:08.788Z,20.37
2024-05-09T12:30:40.328Z,20.28
2024-05-09T12:33:10.796Z,20.25
2024-05-09T12:35:38.823Z,20.27
2024-05-09T12:38:06.073Z,20.24
2024-05-09T12:40:36.602Z,20.20
2024-05-09T12:43:09.885Z,20.12
2024-05-09T12:45:38.843Z,20.15
2024-05-09T12:48:08.771Z,20.12
2024-05-09T12:50:36.917Z,20.00
2024-05-09T12:53:05.322Z,19.89
2024-05-09T12:55:41.249Z,19.88
2024-05-09T12:58:17.423Z,19.95
2024-05-09T13:00:46.389Z,19.98
2024-05-09T13:03:14.385Z,19.99
2024-05-09T13:05:42.253Z,19.99
2024-05-09T13:08:09.875Z,20.00
2024-05-09T13:10:37.330Z,20.00
2024-05-09T13:13:04.957Z,19.88
2024-05-09T13:15:34.965Z,19.96
2024-05-09T13:18:03.649Z,19.97
2024-05-09T13:20:34.575Z,20.01
2024-05-09T13:23:05.908Z,19.97
2024-05-09T13:25:38.004Z,19.89
2024-05-09T13:28:06.810Z,19.80
2024-05-09T13:30:39.657Z,19.79
2024-05-09T13:33:13.002Z,19.84
2024-05-09T13:35:47.780Z,19.81
2024-05-09T13:38:22.100Z,19.80
2024-05-09T13:40:50.690Z,19.72
2024-05-09T13:43:18.774Z,19.67
2024-05-09T13:45:46.493Z,19.62
2024-05-09T13:48:14.261Z,19.59
2024-05-09T13:50:42.085Z,19.51
2024-05-09T13:53:09.450Z,19.54
2024-05-09T13:55:40.403Z,19.51
2024-05-09T13:58:08.974Z,19.46
2024-05-09T14:00:45.251Z,19.38
2024-05-09T14:03:18.100Z,19.28
2024-05-09T14:05:47.639Z,19.19
2024-05-09T14:08:16.033Z,19.11
2024-05-09T14:10:46.600Z,19.04
2024-05-09T14:13:14.966Z,18.99
2024-05-09T14:15:42.359Z,18.97
2024-05-09T14:18:13.111Z,18.97
2024-05-09T14:20:42.600Z,18.98
2024-05-09T14:23:10.373Z,19.00
2024-05-09T14:25:42.281Z,18.97
2024-05-09T14:28:11.896Z,18.92
2024-05-09T14:30:40.057Z,18.96
2024-05-09T14:33:09.068Z,18.91
2024-05-09T14:35:38.645Z,18.81
2024-05-09T14:38:08.595Z,18.79
2024-05-09T14:40:42.034Z,18.74
2024-05-09T14:43:15.318Z,18.64
2024-05-09T14:45:44.111Z,18.61
2024-05-09T14:48:14.365Z,18.63
2024-05-09T14:50:42.451Z,18.60
2024-05-09T14:53:10.942Z,18.55
2024-05-09T14:55:40.202Z,18.53
2024-05-09T14:58:09.842Z,18.51
2024-05-09T15:00:42.428Z,18.51
2024-05-09T15:03:12.543Z,18.51
2024-05-09T15:05:40.653Z,18.46
2024-05-09T15:08:08.832Z,18.40
2024-05-09T15:10:37.319Z,18.41
2024-05-09T15:13:07.945Z,18.36
2024-05-09T15:15:37.517Z,18.34
2024-05-09T15:18:06.061Z,18.29
2024-05-09T15:20:36.403Z,18.23
2024-05-09T15:23:07.072Z,18.17
2024-05-09T15:25:36.643Z,18.16
2024-05-09T15:28:08.165Z,18.11
2024-05-09T15:30:36.389Z,18.10
2024-05-09T15:33:04.662Z,18.11
2024-05-09T15:35:34.096Z,18.14
2024-05-09T15:38:03.600Z,18.15
2024-05-09T15:40:38.533Z,18.11
2024-05-09T15:43:09.166Z,18.07
2024-05-09T15:45:37.981Z,18.04
2024-05-09T15:48:06.545Z,18.06
2024-05-09T15:50:38.921Z,18.08
2024-05-09T15:53:10.417Z,18.06
2024-05-09T15:55:38.538Z,18.10
2024-05-09T15:58:07.127Z,18.10
2024-05-09T16:00:39.285Z,18.03
2024-05-09T16:03:10.802Z,18.03
2024-05-09T16:05:38.998Z,18.01
2024-05-09T16:08:07.590Z,18.02
2024-05-09T16:10:35.570Z,17.99
2024-05-09T16:13:04.117Z,17.98
2024-05-09T16:15:32.144Z,17.96
2024-05-09T16:18:00.515Z,17.95
2024-05-09T16:20:35.264Z,17.96
2024-05-09T16:23:08.703Z,17.94
2024-05-09T16:25:36.862Z,17.91
2024-05-09T16:28:08.810Z,17.86
2024-05-09T16:30:39.405Z,17.81
2024-05-09T16:33:07.860Z,17.76
2024-05-09T16:35:35.787Z,17.70
2024-05-09T16:38:04.311Z,17.72
2024-05-09T16:40:38.263Z,17.68
2024-05-09T16:43:11.748Z,17.67
2024-05-09T16:45:41.158Z,17.63
2024-05-09T16:48:09.296Z,17.62
2024-05-09T16:50:37.334Z,17.56
2024-05-09T16:53:06.156Z,17.53
2024-05-09T16:55:35.139Z,17.56
2024-05-09T16:58:03.636Z,17.55
2024-05-09T17:00:39.517Z,17.46
2024-05-09T17:03:12.763Z,17.45
2024-05-09T17:05:41.437Z,17.41
2024-05-09T17:08:09.255Z,17.36
2024-05-09T17:10:37.054Z,17.33
2024-05-09T17:13:06.503Z,17.28
2024-05-09T17:15:36.206Z,17.26
2024-05-09T17:18:04.776Z,17.26
2024-05-09T17:20:35.494Z,17.22
2024-05-09T17:23:06.243Z,17.18
2024-05-09T17:25:34.554Z,17.16
2024-05-09T17:28:07.905Z,17.12
2024-05-09T17:30:38.780Z,17.05
2024-05-09T17:33:09.836Z,17.00
2024-05-09T17:35:38.335Z,16.95
2024-05-09T17:38:09.159Z,16.80
2024-05-09T17:40:38.263Z,16.79
2024-05-09T17:43:09.075Z,16.66
2024-05-09T17:45:39.463Z,16.53
2024-05-09T17:48:08.794Z,16.43
2024-05-09T17:50:37.742Z,16.32
2024-05-09T17:53:06.529Z,16.19
2024-05-09T17:55:34.420Z,16.10
2024-05-09T17:58:02.493Z,16.02
2024-05-09T18:00:37.626Z,15.94
2024-05-09T18:03:09.189Z,15.82
2024-05-09T18:05:37.480Z,15.70
2024-05-09T18:08:06.698Z,15.65
2024-05-09T18:10:38.052Z,15.57
2024-05-09T18:13:08.797Z,15.49
2024-05-09T18:15:36.740Z,15.40
2024-05-09T18:18:05.446Z,15.34
2024-05-09T18:20:41.780Z,15.27
2024-05-09T18:23:14.678Z,15.13
2024-05-09T18:25:43.322Z,15.05
2024-05-09T18:28:11.024Z,15.02
2024-05-09T18:30:40.009Z,14.94
2024-05-09T18:33:10.688Z,14.86
2024-05-09T18:35:38.603Z,14.74
2024-05-09T18:38:06.068Z,14.72
2024-05-09T18:40:36.571Z,14.65
2024-05-09T18:43:07.785Z,14.59
2024-05-09T18:45:37.779Z,14.51
2024-05-09T18:48:07.217Z,14.52
2024-05-09T18:50:38.845Z,14.47
2024-05-09T18:53:11.049Z,14.43
2024-05-09T18:55:39.408Z,14.37
2024-05-09T18:58:07.085Z,14.15
2024-05-09T19:00:37.987Z,14.22
2024-05-09T19:03:12.871Z,14.10
2024-05-09T19:05:43.852Z,14.05
2024-05-09T19:08:12.519Z,13.97
2024-05-09T19:10:40.419Z,13.91
2024-05-09T19:13:12.061Z,13.82
2024-05-09T19:15:42.528Z,13.77
2024-05-09T19:18:12.601Z,13.69
2024-05-09T19:20:40.527Z,13.61
2024-05-09T19:23:07.914Z,13.53
2024-05-09T19:25:36.160Z,13.49
2024-05-09T19:28:05.162Z,13.43
2024-05-09T19:30:38.916Z,13.40
2024-05-09T19:33:11.162Z,13.36
2024-05-09T19:35:39.731Z,13.25
2024-05-09T19:38:07.418Z,13.17
2024-05-09T19:40:35.624Z,13.11
2024-05-09T19:43:05.471Z,13.06
2024-05-09T19:45:35.203Z,13.05
2024-05-09T19:48:04.126Z,12.98
2024-05-09T19:50:39.875Z,12.95
2024-05-09T19:53:11.827Z,12.89
2024-05-09T19:55:40.092Z,12.82
2024-05-09T19:58:10.104Z,12.81
2024-05-09T20:00:41.370Z,12.79
2024-05-09T20:03:12.531Z,12.73
2024-05-09T20:05:40.393Z,12.67
2024-05-09T20:08:08.016Z,12.63
2024-05-09T20:10:36.421Z,12.59
2024-05-09T20:13:06.382Z,12.56
2024-05-09T20:15:35.728Z,12.53
2024-05-09T20:18:03.645Z,12.50
2024-05-09T20:20:37.696Z,12.49
2024-05-09T20:23:09.536Z,12.47
2024-05-09T20:25:37.175Z,12.41
2024-05-09T20:28:06.622Z,12.42
2024-05-09T20:30:35.323Z,12.39
2024-05-09T20:33:04.929Z,12.36
2024-05-09T20:35:33.771Z,12.32
2024-05-09T20:38:02.667Z,12.30
2024-05-09T20:40:34.631Z,12.29
2024-05-09T20:43:06.101Z,12.24
2024-05-09T20:45:34.254Z,12.18
2024-05-09T20:48:02.258Z,12.16
2024-05-09T20:50:37.209Z,12.14
2024-05-09T20:53:16.678Z,12.10
2024-05-09T20:55:45.023Z,12.09
2024-05-09T20:58:13.127Z,12.09
2024-05-09T21:00:43.820Z,12.08
2024-05-09T21:03:15.216Z,12.03
2024-05-09T21:05:44.004Z,12.03
2024-05-09T21:08:11.461Z,11.98
2024-05-09T21:10:39.081Z,11.94
2024-05-09T21:13:07.248Z,11.92
2024-05-09T21:15:35.779Z,11.94
2024-05-09T21:18:04.222Z,11.92
2024-05-09T21:20:33.565Z,11.92
2024-05-09T21:23:04.202Z,11.91
2024-05-09T21:25:32.304Z,11.90
2024-05-09T21:28:00.367Z,11.89
2024-05-09T21:30:37.515Z,11.89
2024-05-09T21:33:10.339Z,11.87
2024-05-09T21:35:39.063Z,11.84
2024-05-09T21:38:07.535Z,11.83
2024-05-09T21:40:36.611Z,11.81
2024-05-09T21:43:05.827Z,11.70
2024-05-09T21:45:34.115Z,11.64
2024-05-09T21:48:04.034Z,11.64
2024-05-09T21:50:38.673Z,11.61
2024-05-09T21:53:08.851Z,11.58
2024-05-09T21:55:36.120Z,11.59
2024-05-09T21:58:03.830Z,11.58
2024-05-09T22:00:36.724Z,11.57
2024-05-09T22:03:11.620Z,11.54
2024-05-09T22:05:42.536Z,11.62
2024-05-09T22:08:10.115Z,11.66
2024-05-09T22:10:37.638Z,11.68
2024-05-09T22:13:06.496Z,11.64
2024-05-09T22:15:39.878Z,11.65
2024-05-09T22:18:09.307Z,11.65
2024-05-09T22:20:39.435Z,11.58
2024-05-09T22:23:08.719Z,11.58
2024-05-09T22:25:37.243Z,11.57
2024-05-09T22:28:05.388Z,11.54
2024-05-09T22:30:37.199Z,11.54
2024-05-09T22:33:11.797Z,11.53
2024-05-09T22:35:40.837Z,11.52
2024-05-09T22:38:09.016Z,11.50
2024-05-09T22:40:45.673Z,11.49
2024-05-09T22:43:24.376Z,11.49
2024-05-09T22:45:55.849Z,11.49
2024-05-09T22:48:24.791Z,11.45
2024-05-09T22:50:53.385Z,11.46
2024-05-09T22:53:24.244Z,11.53
2024-05-09T22:55:51.550Z,11.56
2024-05-09T22:58:19.848Z,11.57
2024-05-09T23:00:47.368Z,11.60
2024-05-09T23:03:16.863Z,11.56
2024-05-09T23:05:44.321Z,11.51
2024-05-09T23:08:11.519Z,11.46
2024-05-09T23:10:39.101Z,11.48
2024-05-09T23:13:08.044Z,11.51
2024-05-09T23:15:37.778Z,11.53
2024-05-09T23:18:05.991Z,11.48
2024-05-09T23:20:38.050Z,11.40
2024-05-09T23:23:11.605Z,11.41
2024-05-09T23:25:41.793Z,11.49
2024-05-09T23:28:10.321Z,11.45
2024-05-09T23:30:40.260Z,11.38
2024-05-09T23:33:11.579Z,11.31
2024-05-09T23:35:39.232Z,11.29
2024-05-09T23:38:06.407Z,11.21
2024-05-09T23:40:39.511Z,11.19
2024-05-09T23:43:10.593Z,11.13
2024-05-09T23:45:38.569Z,11.12
2024-05-09T23:48:06.706Z,11.08
2024-05-09T23:50:37.180Z,11.01
2024-05-09T23:53:08.196Z,10.96
2024-05-09T23:55:36.444Z,10.90
2024-05-09T23:58:04.020Z,10.85
